Xoxocotlan International Airport
MMOX : now visible

Airfield :











YOU CAN JOIN US ON...

 
LOGIN :

Register | Disclaimer

   EN    FR    IT 

 









Legend :    VFR   Marginal VFR   IFR   Intensive IFR   Very Intensive IFR
Visi :
Ceiling :
>= 8 km
>= 3000ft
5 to 8 km
1000 to 3000 ft
1500m to 5 km
500 to 1000 ft
800 to 1500m
200 to 500 ft
< 800m
< 200 ft
Symbols :   Thunderstorms  Fog  Heavy snow  Heavy precipitations  Wind > 20 kt







- Airport Elevation : 4989 ft
- IATA code : OAX


MMOX - Xoxocotlan International

CURRENT METAR :
  • 190041Z 10007KT 12SM SCT040 BKN120 BKN210 25/08 A3008 RMK 8/436

EXPIRED METARs :
  • 182348Z 14008KT 12SM SCT030 BKN120 BKN210 28/06 A3004 RMK SLP072 52011 953 8/626 VIS RED N 5SM RA VBL CONDS
  • 182244Z 15012KT 12SM SCT040 BKN120 29/04 A3001 RMK 8/420

TAF TAF MMOX
Valid from the 18 at 18:00 until the 19 at 18:00 UTC


181638Z 1818/1918 16015KT P6SM BKN030 BKN070
FM190200 00000KT P6SM SCT080
FM191200 00000KT 5SM HZ BKN050
FM191600 00000KT P6SM SCT020 SCT080
MMFR FIR / North America



MET'MAP, your aeronautical weather chart ! - Copyright ORBIFLY December 2007 - Disclaimer

ORBIFLY MET'MAP TEAM :

Programming & Development : Alexandra Zaïnal
Concept & Development : Baudouin d'Aumeries
Co-Development & Prog : Marc-Olivier Méhu
Technical & hardware support : Manuel Goepfert

Contact : metmap@orbifly.com




SOURCES & CREDITS :

   NOAA       Earth
Advisory